sensor_id;sensor_type;location;lat;lon;timestamp;P1;durP1;ratioP1;P2;durP2;ratioP2
3503;SDS011;1766;53.490;10.174;2022-09-12T00:01:55;3.87;;;3.57;;
3503;SDS011;1766;53.490;10.174;2022-09-12T00:03:59;4.10;;;3.80;;
3503;SDS011;1766;53.490;10.174;2022-09-12T00:06:06;5.37;;;3.90;;
3503;SDS011;1766;53.490;10.174;2022-09-12T00:36:33;3.57;;;3.27;;
3503;SDS011;1766;53.490;10.174;2022-09-12T00:38:35;4.40;;;3.00;;
3503;SDS011;1766;53.490;10.174;2022-09-12T00:40:41;3.60;;;3.30;;
3503;SDS011;1766;53.490;10.174;2022-09-12T00:42:43;3.97;;;3.53;;
3503;SDS011;1766;53.490;10.174;2022-09-12T00:44:47;3.40;;;3.10;;
3503;SDS011;1766;53.490;10.174;2022-09-12T00:46:52;2.63;;;2.43;;
3503;SDS011;1766;53.490;10.174;2022-09-12T00:48:59;5.03;;;2.77;;
3503;SDS011;1766;53.490;10.174;2022-09-12T00:51:03;2.97;;;2.63;;
3503;SDS011;1766;53.490;10.174;2022-09-12T00:53:07;4.57;;;3.43;;
3503;SDS011;1766;53.490;10.174;2022-09-12T00:55:11;3.40;;;3.10;;
3503;SDS011;1766;53.490;10.174;2022-09-12T01:10:23;5.67;;;5.10;;
3503;SDS011;1766;53.490;10.174;2022-09-12T01:12:25;4.90;;;4.50;;
3503;SDS011;1766;53.490;10.174;2022-09-12T01:14:27;6.87;;;6.00;;
3503;SDS011;1766;53.490;10.174;2022-09-12T01:16:30;6.63;;;4.97;;
3503;SDS011;1766;53.490;10.174;2022-09-12T01:18:43;7.50;;;5.50;;
3503;SDS011;1766;53.490;10.174;2022-09-12T01:21:00;5.90;;;5.30;;
3503;SDS011;1766;53.490;10.174;2022-09-12T01:23:19;11.67;;;5.87;;
3503;SDS011;1766;53.490;10.174;2022-09-12T01:28:36;5.53;;;4.93;;
3503;SDS011;1766;53.490;10.174;2022-09-12T01:30:58;5.83;;;4.47;;
3503;SDS011;1766;53.490;10.174;2022-09-12T01:33:13;6.17;;;4.93;;
3503;SDS011;1766;53.490;10.174;2022-09-12T01:35:32;6.83;;;5.23;;
3503;SDS011;1766;53.490;10.174;2022-09-12T01:37:42;5.77;;;5.13;;
3503;SDS011;1766;53.490;10.174;2022-09-12T01:39:55;5.93;;;5.40;;
3503;SDS011;1766;53.490;10.174;2022-09-12T01:42:06;6.43;;;5.13;;
3503;SDS011;1766;53.490;10.174;2022-09-12T01:44:19;6.43;;;5.83;;
3503;SDS011;1766;53.490;10.174;2022-09-12T01:46:29;8.53;;;5.97;;
3503;SDS011;1766;53.490;10.174;2022-09-12T01:48:37;7.47;;;6.63;;
3503;SDS011;1766;53.490;10.174;2022-09-12T01:50:46;7.17;;;6.00;;
3503;SDS011;1766;53.490;10.174;2022-09-12T01:52:52;8.23;;;6.67;;
3503;SDS011;1766;53.490;10.174;2022-09-12T01:54:59;11.07;;;7.23;;
3503;SDS011;1766;53.490;10.174;2022-09-12T01:57:09;10.37;;;7.93;;
3503;SDS011;1766;53.490;10.174;2022-09-12T01:59:17;11.43;;;6.70;;
3503;SDS011;1766;53.490;10.174;2022-09-12T02:01:26;12.77;;;7.17;;
3503;SDS011;1766;53.490;10.174;2022-09-12T02:03:31;10.57;;;6.37;;
3503;SDS011;1766;53.490;10.174;2022-09-12T02:15:17;8.63;;;5.73;;
3503;SDS011;1766;53.490;10.174;2022-09-12T02:17:25;10.57;;;6.03;;
3503;SDS011;1766;53.490;10.174;2022-09-12T02:19:31;8.97;;;4.97;;
3503;SDS011;1766;53.490;10.174;2022-09-12T02:21:37;7.97;;;6.17;;
3503;SDS011;1766;53.490;10.174;2022-09-12T02:23:46;9.50;;;6.57;;
3503;SDS011;1766;53.490;10.174;2022-09-12T02:25:54;12.63;;;6.73;;
3503;SDS011;1766;53.490;10.174;2022-09-12T02:32:31;9.40;;;6.13;;
3503;SDS011;1766;53.490;10.174;2022-09-12T02:34:40;7.47;;;6.07;;
3503;SDS011;1766;53.490;10.174;2022-09-12T02:36:50;8.87;;;6.37;;
3503;SDS011;1766;53.490;10.174;2022-09-12T02:39:03;12.47;;;6.90;;
3503;SDS011;1766;53.490;10.174;2022-09-12T02:41:04;9.17;;;6.40;;
3503;SDS011;1766;53.490;10.174;2022-09-12T02:43:07;7.87;;;6.07;;
3503;SDS011;1766;53.490;10.174;2022-09-12T02:45:09;8.43;;;6.50;;
3503;SDS011;1766;53.490;10.174;2022-09-12T02:47:14;9.67;;;6.73;;
3503;SDS011;1766;53.490;10.174;2022-09-12T02:49:22;12.07;;;5.97;;
3503;SDS011;1766;53.490;10.174;2022-09-12T02:51:24;6.70;;;5.83;;
3503;SDS011;1766;53.490;10.174;2022-09-12T02:53:27;8.27;;;5.77;;
3503;SDS011;1766;53.490;10.174;2022-09-12T02:55:29;11.23;;;6.40;;
3503;SDS011;1766;53.490;10.174;2022-09-12T02:57:32;11.03;;;6.70;;
3503;SDS011;1766;53.490;10.174;2022-09-12T02:59:35;11.63;;;6.40;;
3503;SDS011;1766;53.490;10.174;2022-09-12T03:01:42;10.23;;;6.33;;
3503;SDS011;1766;53.490;10.174;2022-09-12T03:04:07;12.00;;;5.67;;
3503;SDS011;1766;53.490;10.174;2022-09-12T03:06:27;7.47;;;6.17;;
3503;SDS011;1766;53.490;10.174;2022-09-12T03:08:41;8.93;;;5.70;;
3503;SDS011;1766;53.490;10.174;2022-09-12T03:11:01;9.90;;;6.87;;
3503;SDS011;1766;53.490;10.174;2022-09-12T03:13:20;12.80;;;5.90;;
3503;SDS011;1766;53.490;10.174;2022-09-12T03:15:29;11.07;;;6.30;;
3503;SDS011;1766;53.490;10.174;2022-09-12T03:17:45;7.97;;;6.20;;
3503;SDS011;1766;53.490;10.174;2022-09-12T03:20:04;8.80;;;6.63;;
3503;SDS011;1766;53.490;10.174;2022-09-12T03:22:12;12.73;;;6.77;;
3503;SDS011;1766;53.490;10.174;2022-09-12T03:24:20;11.57;;;7.13;;
3503;SDS011;1766;53.490;10.174;2022-09-12T03:26:31;9.30;;;6.80;;
3503;SDS011;1766;53.490;10.174;2022-09-12T03:28:39;8.77;;;6.40;;
3503;SDS011;1766;53.490;10.174;2022-09-12T03:30:45;9.20;;;6.77;;
3503;SDS011;1766;53.490;10.174;2022-09-12T03:32:50;10.40;;;7.00;;
3503;SDS011;1766;53.490;10.174;2022-09-12T03:34:54;11.33;;;7.07;;
3503;SDS011;1766;53.490;10.174;2022-09-12T03:36:57;8.33;;;6.20;;
3503;SDS011;1766;53.490;10.174;2022-09-12T03:38:59;8.37;;;5.97;;
3503;SDS011;1766;53.490;10.174;2022-09-12T03:41:01;9.93;;;6.63;;
3503;SDS011;1766;53.490;10.174;2022-09-12T03:43:02;10.07;;;6.10;;
3503;SDS011;1766;53.490;10.174;2022-09-12T03:45:06;8.63;;;6.00;;
3503;SDS011;1766;53.490;10.174;2022-09-12T03:47:09;7.57;;;5.70;;
3503;SDS011;1766;53.490;10.174;2022-09-12T03:49:11;6.73;;;5.53;;
3503;SDS011;1766;53.490;10.174;2022-09-12T03:51:13;5.80;;;5.20;;
3503;SDS011;1766;53.490;10.174;2022-09-12T03:53:16;6.33;;;5.37;;
3503;SDS011;1766;53.490;10.174;2022-09-12T03:55:18;12.33;;;5.13;;
3503;SDS011;1766;53.490;10.174;2022-09-12T03:57:20;5.80;;;4.70;;
3503;SDS011;1766;53.490;10.174;2022-09-12T03:59:22;7.47;;;5.53;;
3503;SDS011;1766;53.490;10.174;2022-09-12T04:01:24;6.33;;;4.93;;
3503;SDS011;1766;53.490;10.174;2022-09-12T04:03:26;7.23;;;4.53;;
3503;SDS011;1766;53.490;10.174;2022-09-12T04:05:27;5.10;;;4.57;;
3503;SDS011;1766;53.490;10.174;2022-09-12T04:07:29;5.90;;;4.57;;
3503;SDS011;1766;53.490;10.174;2022-09-12T04:09:32;4.87;;;4.43;;
3503;SDS011;1766;53.490;10.174;2022-09-12T04:11:34;5.83;;;5.17;;
3503;SDS011;1766;53.490;10.174;2022-09-12T04:13:36;6.50;;;5.27;;
3503;SDS011;1766;53.490;10.174;2022-09-12T04:15:40;6.73;;;4.87;;
3503;SDS011;1766;53.490;10.174;2022-09-12T04:17:42;5.50;;;5.00;;
3503;SDS011;1766;53.490;10.174;2022-09-12T04:19:43;7.97;;;4.63;;
3503;SDS011;1766;53.490;10.174;2022-09-12T04:21:45;6.37;;;4.70;;
3503;SDS011;1766;53.490;10.174;2022-09-12T04:23:47;6.97;;;5.57;;
3503;SDS011;1766;53.490;10.174;2022-09-12T04:25:55;8.73;;;6.17;;
3503;SDS011;1766;53.490;10.174;2022-09-12T04:27:58;8.20;;;6.07;;
3503;SDS011;1766;53.490;10.174;2022-09-12T04:30:00;8.23;;;6.23;;
3503;SDS011;1766;53.490;10.174;2022-09-12T04:32:02;7.07;;;5.27;;
3503;SDS011;1766;53.490;10.174;2022-09-12T04:34:04;12.17;;;5.60;;
3503;SDS011;1766;53.490;10.174;2022-09-12T04:36:07;8.07;;;5.97;;
3503;SDS011;1766;53.490;10.174;2022-09-12T04:38:13;11.87;;;5.83;;
3503;SDS011;1766;53.490;10.174;2022-09-12T04:40:15;15.40;;;5.83;;
3503;SDS011;1766;53.490;10.174;2022-09-12T04:42:19;9.70;;;5.97;;
3503;SDS011;1766;53.490;10.174;2022-09-12T04:44:21;13.07;;;6.10;;
3503;SDS011;1766;53.490;10.174;2022-09-12T04:46:23;17.37;;;6.37;;
3503;SDS011;1766;53.490;10.174;2022-09-12T04:48:26;10.30;;;6.17;;
3503;SDS011;1766;53.490;10.174;2022-09-12T04:50:28;16.43;;;6.30;;
3503;SDS011;1766;53.490;10.174;2022-09-12T04:52:29;8.37;;;6.17;;
3503;SDS011;1766;53.490;10.174;2022-09-12T04:54:31;9.43;;;6.03;;
3503;SDS011;1766;53.490;10.174;2022-09-12T04:56:35;11.80;;;6.67;;
3503;SDS011;1766;53.490;10.174;2022-09-12T04:58:39;10.57;;;6.93;;
3503;SDS011;1766;53.490;10.174;2022-09-12T05:00:41;14.57;;;6.87;;
3503;SDS011;1766;53.490;10.174;2022-09-12T05:02:43;7.80;;;5.93;;
3503;SDS011;1766;53.490;10.174;2022-09-12T05:04:45;12.30;;;6.80;;
3503;SDS011;1766;53.490;10.174;2022-09-12T05:06:47;12.37;;;7.23;;
3503;SDS011;1766;53.490;10.174;2022-09-12T05:08:49;13.67;;;6.80;;
3503;SDS011;1766;53.490;10.174;2022-09-12T05:10:51;10.03;;;7.33;;
3503;SDS011;1766;53.490;10.174;2022-09-12T05:12:56;12.77;;;7.07;;
3503;SDS011;1766;53.490;10.174;2022-09-12T05:14:59;10.90;;;5.87;;
3503;SDS011;1766;53.490;10.174;2022-09-12T05:17:01;8.63;;;5.93;;
3503;SDS011;1766;53.490;10.174;2022-09-12T05:19:05;7.33;;;6.40;;
3503;SDS011;1766;53.490;10.174;2022-09-12T05:21:09;8.43;;;6.97;;
3503;SDS011;1766;53.490;10.174;2022-09-12T05:23:13;13.73;;;7.50;;
3503;SDS011;1766;53.490;10.174;2022-09-12T05:25:15;13.87;;;7.40;;
3503;SDS011;1766;53.490;10.174;2022-09-12T05:27:17;15.43;;;6.83;;
3503;SDS011;1766;53.490;10.174;2022-09-12T05:29:19;13.40;;;8.80;;
3503;SDS011;1766;53.490;10.174;2022-09-12T05:31:22;14.27;;;7.77;;
3503;SDS011;1766;53.490;10.174;2022-09-12T05:33:25;7.27;;;6.57;;
3503;SDS011;1766;53.490;10.174;2022-09-12T05:35:27;13.00;;;7.97;;
3503;SDS011;1766;53.490;10.174;2022-09-12T05:37:29;13.83;;;6.77;;
3503;SDS011;1766;53.490;10.174;2022-09-12T05:39:31;13.53;;;7.83;;
3503;SDS011;1766;53.490;10.174;2022-09-12T05:41:33;16.37;;;7.30;;
3503;SDS011;1766;53.490;10.174;2022-09-12T05:43:36;11.40;;;6.80;;
3503;SDS011;1766;53.490;10.174;2022-09-12T05:45:40;11.17;;;6.20;;
3503;SDS011;1766;53.490;10.174;2022-09-12T05:47:46;13.57;;;5.90;;
3503;SDS011;1766;53.490;10.174;2022-09-12T05:49:48;9.37;;;7.37;;
3503;SDS011;1766;53.490;10.174;2022-09-12T05:51:51;10.87;;;7.07;;
3503;SDS011;1766;53.490;10.174;2022-09-12T05:53:54;7.27;;;6.50;;
3503;SDS011;1766;53.490;10.174;2022-09-12T05:56:02;11.63;;;7.30;;
3503;SDS011;1766;53.490;10.174;2022-09-12T05:58:07;14.17;;;7.07;;
3503;SDS011;1766;53.490;10.174;2022-09-12T06:00:09;13.30;;;7.43;;
3503;SDS011;1766;53.490;10.174;2022-09-12T06:02:12;13.53;;;7.77;;
3503;SDS011;1766;53.490;10.174;2022-09-12T06:04:16;23.90;;;8.10;;
3503;SDS011;1766;53.490;10.174;2022-09-12T06:06:18;18.43;;;8.00;;
3503;SDS011;1766;53.490;10.174;2022-09-12T06:08:22;17.13;;;9.30;;
3503;SDS011;1766;53.490;10.174;2022-09-12T06:10:24;17.80;;;9.60;;
3503;SDS011;1766;53.490;10.174;2022-09-12T06:12:27;20.30;;;9.90;;
3503;SDS011;1766;53.490;10.174;2022-09-12T06:14:29;25.03;;;9.30;;
3503;SDS011;1766;53.490;10.174;2022-09-12T06:16:32;24.77;;;11.00;;
3503;SDS011;1766;53.490;10.174;2022-09-12T06:18:36;38.47;;;10.97;;
3503;SDS011;1766;53.490;10.174;2022-09-12T06:20:40;30.77;;;10.60;;
3503;SDS011;1766;53.490;10.174;2022-09-12T06:22:42;21.87;;;10.87;;
3503;SDS011;1766;53.490;10.174;2022-09-12T06:24:44;23.63;;;11.40;;
3503;SDS011;1766;53.490;10.174;2022-09-12T06:26:46;14.23;;;10.20;;
3503;SDS011;1766;53.490;10.174;2022-09-12T06:28:49;17.90;;;10.77;;
3503;SDS011;1766;53.490;10.174;2022-09-12T06:30:52;13.87;;;10.67;;
3503;SDS011;1766;53.490;10.174;2022-09-12T06:32:54;12.90;;;10.50;;
3503;SDS011;1766;53.490;10.174;2022-09-12T06:34:56;14.67;;;11.00;;
3503;SDS011;1766;53.490;10.174;2022-09-12T06:36:59;13.93;;;10.30;;
3503;SDS011;1766;53.490;10.174;2022-09-12T06:39:03;16.30;;;10.57;;
3503;SDS011;1766;53.490;10.174;2022-09-12T06:41:08;14.17;;;11.07;;
3503;SDS011;1766;53.490;10.174;2022-09-12T06:43:11;15.87;;;11.17;;
3503;SDS011;1766;53.490;10.174;2022-09-12T06:45:13;35.47;;;11.70;;
3503;SDS011;1766;53.490;10.174;2022-09-12T06:47:16;12.57;;;9.63;;
3503;SDS011;1766;53.490;10.174;2022-09-12T06:49:17;16.93;;;12.13;;
3503;SDS011;1766;53.490;10.174;2022-09-12T06:51:19;13.90;;;11.07;;
3503;SDS011;1766;53.490;10.174;2022-09-12T06:53:23;19.03;;;11.20;;
3503;SDS011;1766;53.490;10.174;2022-09-12T06:55:25;14.67;;;10.90;;
3503;SDS011;1766;53.490;10.174;2022-09-12T06:57:27;15.00;;;11.87;;
3503;SDS011;1766;53.490;10.174;2022-09-12T06:59:30;15.07;;;11.63;;
3503;SDS011;1766;53.490;10.174;2022-09-12T07:01:32;16.27;;;11.23;;
3503;SDS011;1766;53.490;10.174;2022-09-12T07:03:34;17.70;;;11.40;;
3503;SDS011;1766;53.490;10.174;2022-09-12T07:05:37;16.50;;;11.10;;
3503;SDS011;1766;53.490;10.174;2022-09-12T07:07:39;16.03;;;11.67;;
3503;SDS011;1766;53.490;10.174;2022-09-12T07:09:42;15.83;;;11.30;;
3503;SDS011;1766;53.490;10.174;2022-09-12T07:11:44;15.37;;;10.87;;
3503;SDS011;1766;53.490;10.174;2022-09-12T07:13:47;14.33;;;10.93;;
3503;SDS011;1766;53.490;10.174;2022-09-12T07:15:51;13.97;;;10.77;;
3503;SDS011;1766;53.490;10.174;2022-09-12T07:17:53;16.07;;;11.13;;
3503;SDS011;1766;53.490;10.174;2022-09-12T07:19:54;12.30;;;10.20;;
3503;SDS011;1766;53.490;10.174;2022-09-12T07:21:56;10.83;;;9.70;;
3503;SDS011;1766;53.490;10.174;2022-09-12T07:23:58;12.87;;;9.17;;
3503;SDS011;1766;53.490;10.174;2022-09-12T07:26:01;10.37;;;8.93;;
3503;SDS011;1766;53.490;10.174;2022-09-12T07:28:04;11.30;;;10.10;;
3503;SDS011;1766;53.490;10.174;2022-09-12T07:30:06;12.13;;;9.97;;
3503;SDS011;1766;53.490;10.174;2022-09-12T07:32:08;15.57;;;12.00;;
3503;SDS011;1766;53.490;10.174;2022-09-12T07:34:11;10.47;;;9.30;;
3503;SDS011;1766;53.490;10.174;2022-09-12T07:36:13;11.80;;;9.53;;
3503;SDS011;1766;53.490;10.174;2022-09-12T07:38:16;13.07;;;10.53;;
3503;SDS011;1766;53.490;10.174;2022-09-12T07:40:18;12.10;;;9.60;;
3503;SDS011;1766;53.490;10.174;2022-09-12T07:42:22;12.30;;;10.20;;
3503;SDS011;1766;53.490;10.174;2022-09-12T07:44:24;12.57;;;8.77;;
3503;SDS011;1766;53.490;10.174;2022-09-12T07:46:26;10.90;;;9.80;;
3503;SDS011;1766;53.490;10.174;2022-09-12T07:48:30;12.53;;;10.27;;
3503;SDS011;1766;53.490;10.174;2022-09-12T07:50:32;10.57;;;9.50;;
3503;SDS011;1766;53.490;10.174;2022-09-12T07:52:35;11.70;;;10.37;;
3503;SDS011;1766;53.490;10.174;2022-09-12T07:54:37;12.03;;;10.43;;
3503;SDS011;1766;53.490;10.174;2022-09-12T07:56:39;14.93;;;10.33;;
3503;SDS011;1766;53.490;10.174;2022-09-12T07:58:42;11.63;;;10.10;;
3503;SDS011;1766;53.490;10.174;2022-09-12T08:00:44;9.30;;;8.40;;
3503;SDS011;1766;53.490;10.174;2022-09-12T08:02:49;12.83;;;11.47;;
3503;SDS011;1766;53.490;10.174;2022-09-12T08:04:52;11.07;;;9.77;;
3503;SDS011;1766;53.490;10.174;2022-09-12T08:06:53;10.83;;;9.83;;
3503;SDS011;1766;53.490;10.174;2022-09-12T08:08:56;11.37;;;10.27;;
3503;SDS011;1766;53.490;10.174;2022-09-12T08:10:59;11.40;;;10.27;;
3503;SDS011;1766;53.490;10.174;2022-09-12T08:13:05;10.93;;;9.90;;
3503;SDS011;1766;53.490;10.174;2022-09-12T08:15:09;11.00;;;10.00;;
3503;SDS011;1766;53.490;10.174;2022-09-12T08:17:11;14.87;;;13.33;;
3503;SDS011;1766;53.490;10.174;2022-09-12T08:19:13;20.23;;;17.60;;
3503;SDS011;1766;53.490;10.174;2022-09-12T08:21:15;10.73;;;9.63;;
3503;SDS011;1766;53.490;10.174;2022-09-12T08:23:19;11.03;;;10.03;;
3503;SDS011;1766;53.490;10.174;2022-09-12T08:25:22;10.50;;;9.37;;
3503;SDS011;1766;53.490;10.174;2022-09-12T08:27:25;11.17;;;9.30;;
3503;SDS011;1766;53.490;10.174;2022-09-12T08:29:26;9.93;;;8.93;;
3503;SDS011;1766;53.490;10.174;2022-09-12T08:31:30;9.23;;;6.93;;
3503;SDS011;1766;53.490;10.174;2022-09-12T08:33:35;12.60;;;6.83;;
3503;SDS011;1766;53.490;10.174;2022-09-12T08:35:37;9.10;;;8.20;;
3503;SDS011;1766;53.490;10.174;2022-09-12T08:37:39;10.37;;;7.37;;
3503;SDS011;1766;53.490;10.174;2022-09-12T08:39:41;7.13;;;6.53;;
3503;SDS011;1766;53.490;10.174;2022-09-12T08:41:43;8.40;;;7.73;;
3503;SDS011;1766;53.490;10.174;2022-09-12T08:43:51;8.10;;;7.30;;
3503;SDS011;1766;53.490;10.174;2022-09-12T08:46:10;6.57;;;5.97;;
3503;SDS011;1766;53.490;10.174;2022-09-12T08:48:19;6.00;;;5.50;;
3503;SDS011;1766;53.490;10.174;2022-09-12T08:50:21;11.17;;;5.63;;
3503;SDS011;1766;53.490;10.174;2022-09-12T08:52:25;10.20;;;5.70;;
3503;SDS011;1766;53.490;10.174;2022-09-12T08:54:31;7.33;;;5.80;;
3503;SDS011;1766;53.490;10.174;2022-09-12T08:56:35;5.60;;;5.20;;
3503;SDS011;1766;53.490;10.174;2022-09-12T08:58:39;4.93;;;4.47;;
3503;SDS011;1766;53.490;10.174;2022-09-12T09:00:46;5.17;;;4.77;;
3503;SDS011;1766;53.490;10.174;2022-09-12T09:03:03;4.60;;;4.30;;
3503;SDS011;1766;53.490;10.174;2022-09-12T09:05:25;7.40;;;4.97;;
3503;SDS011;1766;53.490;10.174;2022-09-12T09:07:48;5.23;;;4.80;;
3503;SDS011;1766;53.490;10.174;2022-09-12T09:10:13;4.23;;;3.83;;
3503;SDS011;1766;53.490;10.174;2022-09-12T09:12:26;3.33;;;3.13;;
3503;SDS011;1766;53.490;10.174;2022-09-12T09:14:42;4.03;;;3.73;;
3503;SDS011;1766;53.490;10.174;2022-09-12T09:17:00;4.37;;;4.03;;
3503;SDS011;1766;53.490;10.174;2022-09-12T09:19:10;39.93;;;26.57;;
3503;SDS011;1766;53.490;10.174;2022-09-12T09:21:19;5.57;;;5.07;;
3503;SDS011;1766;53.490;10.174;2022-09-12T09:23:26;6.27;;;4.00;;
3503;SDS011;1766;53.490;10.174;2022-09-12T09:25:36;6.53;;;3.60;;
3503;SDS011;1766;53.490;10.174;2022-09-12T09:27:45;3.47;;;3.27;;
3503;SDS011;1766;53.490;10.174;2022-09-12T09:29:57;4.43;;;4.03;;
3503;SDS011;1766;53.490;10.174;2022-09-12T09:31:59;6.40;;;3.30;;
3503;SDS011;1766;53.490;10.174;2022-09-12T09:34:05;3.77;;;3.57;;
3503;SDS011;1766;53.490;10.174;2022-09-12T09:36:16;3.60;;;3.30;;
3503;SDS011;1766;53.490;10.174;2022-09-12T09:38:22;3.10;;;2.90;;
3503;SDS011;1766;53.490;10.174;2022-09-12T09:40:36;3.13;;;2.83;;
3503;SDS011;1766;53.490;10.174;2022-09-12T09:42:49;4.57;;;3.50;;
3503;SDS011;1766;53.490;10.174;2022-09-12T09:44:58;3.00;;;2.80;;
3503;SDS011;1766;53.490;10.174;2022-09-12T09:47:03;3.57;;;2.93;;
3503;SDS011;1766;53.490;10.174;2022-09-12T09:49:05;3.50;;;3.20;;
3503;SDS011;1766;53.490;10.174;2022-09-12T09:51:15;2.80;;;2.60;;
3503;SDS011;1766;53.490;10.174;2022-09-12T09:53:28;7.43;;;3.50;;
3503;SDS011;1766;53.490;10.174;2022-09-12T09:55:37;4.83;;;3.70;;
3503;SDS011;1766;53.490;10.174;2022-09-12T09:57:43;4.30;;;3.93;;
3503;SDS011;1766;53.490;10.174;2022-09-12T09:59:46;3.87;;;3.50;;
3503;SDS011;1766;53.490;10.174;2022-09-12T10:01:49;3.80;;;3.27;;
3503;SDS011;1766;53.490;10.174;2022-09-12T10:03:54;3.93;;;3.33;;
3503;SDS011;1766;53.490;10.174;2022-09-12T10:06:03;5.87;;;2.90;;
3503;SDS011;1766;53.490;10.174;2022-09-12T10:08:08;17.33;;;13.67;;
3503;SDS011;1766;53.490;10.174;2022-09-12T10:10:14;4.20;;;3.90;;
3503;SDS011;1766;53.490;10.174;2022-09-12T10:12:19;3.70;;;3.40;;
3503;SDS011;1766;53.490;10.174;2022-09-12T10:14:28;5.23;;;4.17;;
3503;SDS011;1766;53.490;10.174;2022-09-12T10:16:46;3.83;;;3.53;;
3503;SDS011;1766;53.490;10.174;2022-09-12T10:18:53;2.67;;;2.47;;
3503;SDS011;1766;53.490;10.174;2022-09-12T10:20:56;2.60;;;2.40;;
3503;SDS011;1766;53.490;10.174;2022-09-12T10:23:01;3.27;;;3.07;;
3503;SDS011;1766;53.490;10.174;2022-09-12T10:25:15;4.97;;;3.10;;
3503;SDS011;1766;53.490;10.174;2022-09-12T10:27:21;4.00;;;3.60;;
3503;SDS011;1766;53.490;10.174;2022-09-12T10:29:25;3.73;;;3.43;;
3503;SDS011;1766;53.490;10.174;2022-09-12T10:31:34;2.40;;;2.30;;
3503;SDS011;1766;53.490;10.174;2022-09-12T10:33:44;2.17;;;1.97;;
3503;SDS011;1766;53.490;10.174;2022-09-12T10:35:52;1.58;;;1.50;;
3503;SDS011;1766;53.490;10.174;2022-09-12T10:37:57;1.30;;;1.17;;
3503;SDS011;1766;53.490;10.174;2022-09-12T10:40:03;1.38;;;1.23;;
3503;SDS011;1766;53.490;10.174;2022-09-12T10:42:11;3.63;;;2.23;;
3503;SDS011;1766;53.490;10.174;2022-09-12T10:44:16;2.25;;;1.70;;
3503;SDS011;1766;53.490;10.174;2022-09-12T10:46:27;1.10;;;1.07;;
3503;SDS011;1766;53.490;10.174;2022-09-12T10:48:30;1.33;;;1.00;;
3503;SDS011;1766;53.490;10.174;2022-09-12T10:50:35;1.30;;;1.10;;
3503;SDS011;1766;53.490;10.174;2022-09-12T10:52:40;28.10;;;21.60;;
3503;SDS011;1766;53.490;10.174;2022-09-12T10:54:43;3.47;;;1.33;;
3503;SDS011;1766;53.490;10.174;2022-09-12T10:56:49;1.02;;;0.93;;
3503;SDS011;1766;53.490;10.174;2022-09-12T10:59:06;2.17;;;1.60;;
3503;SDS011;1766;53.490;10.174;2022-09-12T11:01:22;1.60;;;1.50;;
3503;SDS011;1766;53.490;10.174;2022-09-12T11:03:41;0.75;;;0.75;;
3503;SDS011;1766;53.490;10.174;2022-09-12T11:06:03;0.68;;;0.60;;
3503;SDS011;1766;53.490;10.174;2022-09-12T11:08:10;0.70;;;0.70;;
3503;SDS011;1766;53.490;10.174;2022-09-12T11:10:30;2.15;;;0.80;;
3503;SDS011;1766;53.490;10.174;2022-09-12T11:12:42;1.02;;;0.95;;
3503;SDS011;1766;53.490;10.174;2022-09-12T11:14:56;1.58;;;0.90;;
3503;SDS011;1766;53.490;10.174;2022-09-12T11:17:15;0.63;;;0.57;;
3503;SDS011;1766;53.490;10.174;2022-09-12T11:19:34;0.70;;;0.70;;
3503;SDS011;1766;53.490;10.174;2022-09-12T11:21:51;0.80;;;0.80;;
3503;SDS011;1766;53.490;10.174;2022-09-12T11:24:15;1.23;;;0.73;;
3503;SDS011;1766;53.490;10.174;2022-09-12T11:26:32;1.70;;;0.77;;
3503;SDS011;1766;53.490;10.174;2022-09-12T11:28:52;1.55;;;0.82;;
3503;SDS011;1766;53.490;10.174;2022-09-12T11:31:13;1.42;;;1.42;;
3503;SDS011;1766;53.490;10.174;2022-09-12T11:33:41;1.10;;;0.93;;
3503;SDS011;1766;53.490;10.174;2022-09-12T11:35:46;0.80;;;0.80;;
3503;SDS011;1766;53.490;10.174;2022-09-12T11:37:54;1.52;;;0.70;;
3503;SDS011;1766;53.490;10.174;2022-09-12T11:40:24;2.90;;;0.80;;
3503;SDS011;1766;53.490;10.174;2022-09-12T11:42:33;0.75;;;0.75;;
3503;SDS011;1766;53.490;10.174;2022-09-12T11:44:39;0.68;;;0.68;;
3503;SDS011;1766;53.490;10.174;2022-09-12T11:46:45;0.80;;;0.80;;
3503;SDS011;1766;53.490;10.174;2022-09-12T11:48:48;9.60;;;7.80;;
3503;SDS011;1766;53.490;10.174;2022-09-12T11:50:55;0.80;;;0.80;;
3503;SDS011;1766;53.490;10.174;2022-09-12T11:53:02;2.85;;;1.80;;
3503;SDS011;1766;53.490;10.174;2022-09-12T11:55:14;1.63;;;0.90;;
3503;SDS011;1766;53.490;10.174;2022-09-12T11:57:22;0.82;;;0.70;;
3503;SDS011;1766;53.490;10.174;2022-09-12T11:59:33;2.22;;;0.88;;
3503;SDS011;1766;53.490;10.174;2022-09-12T12:01:44;0.77;;;0.77;;
3503;SDS011;1766;53.490;10.174;2022-09-12T12:03:51;0.70;;;0.70;;
3503;SDS011;1766;53.490;10.174;2022-09-12T12:05:55;0.70;;;0.70;;
3503;SDS011;1766;53.490;10.174;2022-09-12T12:08:03;0.70;;;0.70;;
3503;SDS011;1766;53.490;10.174;2022-09-12T12:10:07;0.45;;;0.43;;
3503;SDS011;1766;53.490;10.174;2022-09-12T12:12:25;0.80;;;0.70;;
3503;SDS011;1766;53.490;10.174;2022-09-12T12:14:30;1.63;;;0.50;;
3503;SDS011;1766;53.490;10.174;2022-09-12T12:16:41;0.80;;;0.80;;
3503;SDS011;1766;53.490;10.174;2022-09-12T12:18:44;0.60;;;0.50;;
3503;SDS011;1766;53.490;10.174;2022-09-12T12:20:54;1.13;;;0.60;;
3503;SDS011;1766;53.490;10.174;2022-09-12T12:22:57;0.73;;;0.73;;
3503;SDS011;1766;53.490;10.174;2022-09-12T12:25:02;0.80;;;0.80;;
3503;SDS011;1766;53.490;10.174;2022-09-12T12:27:21;0.90;;;0.70;;
3503;SDS011;1766;53.490;10.174;2022-09-12T12:29:46;1.45;;;0.70;;
3503;SDS011;1766;53.490;10.174;2022-09-12T12:34:27;2.50;;;0.90;;
3503;SDS011;1766;53.490;10.174;2022-09-12T12:36:35;1.33;;;0.70;;
3503;SDS011;1766;53.490;10.174;2022-09-12T12:38:39;1.08;;;0.60;;
3503;SDS011;1766;53.490;10.174;2022-09-12T12:40:41;0.70;;;0.70;;
3503;SDS011;1766;53.490;10.174;2022-09-12T12:45:09;1.85;;;0.60;;
3503;SDS011;1766;53.490;10.174;2022-09-12T12:47:49;0.85;;;0.85;;
3503;SDS011;1766;53.490;10.174;2022-09-12T12:49:54;0.50;;;0.50;;
3503;SDS011;1766;53.490;10.174;2022-09-12T12:51:59;1.23;;;0.60;;
3503;SDS011;1766;53.490;10.174;2022-09-12T12:54:04;0.60;;;0.60;;
3503;SDS011;1766;53.490;10.174;2022-09-12T12:56:32;0.85;;;0.82;;
3503;SDS011;1766;53.490;10.174;2022-09-12T12:58:39;0.60;;;0.60;;
3503;SDS011;1766;53.490;10.174;2022-09-12T13:00:43;1.48;;;0.85;;
3503;SDS011;1766;53.490;10.174;2022-09-12T13:02:48;1.65;;;0.60;;
3503;SDS011;1766;53.490;10.174;2022-09-12T13:04:54;0.85;;;0.68;;
3503;SDS011;1766;53.490;10.174;2022-09-12T13:06:59;0.85;;;0.85;;
3503;SDS011;1766;53.490;10.174;2022-09-12T13:09:05;1.15;;;1.02;;
3503;SDS011;1766;53.490;10.174;2022-09-12T13:11:10;3.05;;;0.80;;
3503;SDS011;1766;53.490;10.174;2022-09-12T13:13:29;1.25;;;0.80;;
3503;SDS011;1766;53.490;10.174;2022-09-12T13:15:47;0.70;;;0.70;;
3503;SDS011;1766;53.490;10.174;2022-09-12T13:17:51;0.77;;;0.77;;
3503;SDS011;1766;53.490;10.174;2022-09-12T13:19:58;1.15;;;1.05;;
3503;SDS011;1766;53.490;10.174;2022-09-12T13:22:08;1.27;;;1.27;;
3503;SDS011;1766;53.490;10.174;2022-09-12T13:24:12;5.70;;;1.20;;
3503;SDS011;1766;53.490;10.174;2022-09-12T13:26:19;0.80;;;0.80;;
3503;SDS011;1766;53.490;10.174;2022-09-12T13:28:24;0.98;;;0.80;;
3503;SDS011;1766;53.490;10.174;2022-09-12T13:30:27;2.08;;;0.75;;
3503;SDS011;1766;53.490;10.174;2022-09-12T13:32:34;1.20;;;1.15;;
3503;SDS011;1766;53.490;10.174;2022-09-12T13:34:41;0.90;;;0.90;;
3503;SDS011;1766;53.490;10.174;2022-09-12T13:37:12;1.17;;;0.95;;
3503;SDS011;1766;53.490;10.174;2022-09-12T13:39:33;2.67;;;1.50;;
3503;SDS011;1766;53.490;10.174;2022-09-12T13:41:51;1.75;;;0.98;;
3503;SDS011;1766;53.490;10.174;2022-09-12T13:44:21;1.08;;;1.05;;
3503;SDS011;1766;53.490;10.174;2022-09-12T13:46:25;0.93;;;0.93;;
3503;SDS011;1766;53.490;10.174;2022-09-12T13:48:32;1.33;;;0.90;;
3503;SDS011;1766;53.490;10.174;2022-09-12T13:50:36;1.17;;;1.05;;
3503;SDS011;1766;53.490;10.174;2022-09-12T13:52:41;1.00;;;0.93;;
3503;SDS011;1766;53.490;10.174;2022-09-12T13:54:52;1.00;;;0.80;;